sensor_id;sensor_type;location;lat;lon;timestamp;temperature;humidity
16907;DHT22;8570;52.380;4.654;2023-12-20T00:02:59;7.50;99.90
16907;DHT22;8570;52.380;4.654;2023-12-20T00:08:01;7.50;99.90
16907;DHT22;8570;52.380;4.654;2023-12-20T00:13:04;7.50;99.90
16907;DHT22;8570;52.380;4.654;2023-12-20T00:18:08;7.50;99.90
16907;DHT22;8570;52.380;4.654;2023-12-20T00:23:10;7.60;99.90
16907;DHT22;8570;52.380;4.654;2023-12-20T00:28:13;7.60;99.90
16907;DHT22;8570;52.380;4.654;2023-12-20T00:33:15;7.60;99.90
16907;DHT22;8570;52.380;4.654;2023-12-20T00:38:17;7.60;99.90
16907;DHT22;8570;52.380;4.654;2023-12-20T00:43:22;7.60;99.90
16907;DHT22;8570;52.380;4.654;2023-12-20T00:48:24;7.60;99.90
16907;DHT22;8570;52.380;4.654;2023-12-20T00:53:27;7.60;99.90
16907;DHT22;8570;52.380;4.654;2023-12-20T00:58:31;7.60;99.90
16907;DHT22;8570;52.380;4.654;2023-12-20T01:03:34;7.60;99.90
16907;DHT22;8570;52.380;4.654;2023-12-20T01:08:37;7.60;99.90
16907;DHT22;8570;52.380;4.654;2023-12-20T01:13:41;7.60;99.90
16907;DHT22;8570;52.380;4.654;2023-12-20T01:18:42;7.60;99.90
16907;DHT22;8570;52.380;4.654;2023-12-20T01:23:44;7.60;99.90
16907;DHT22;8570;52.380;4.654;2023-12-20T01:28:48;7.70;99.90
16907;DHT22;8570;52.380;4.654;2023-12-20T01:33:49;7.70;99.90
16907;DHT22;8570;52.380;4.654;2023-12-20T01:38:53;7.70;99.90
16907;DHT22;8570;52.380;4.654;2023-12-20T01:43:57;7.80;99.90
16907;DHT22;8570;52.380;4.654;2023-12-20T01:48:59;7.80;99.90
16907;DHT22;8570;52.380;4.654;2023-12-20T01:54:01;7.80;99.90
16907;DHT22;8570;52.380;4.654;2023-12-20T01:59:05;7.80;99.90
16907;DHT22;8570;52.380;4.654;2023-12-20T02:04:09;7.80;99.90
16907;DHT22;8570;52.380;4.654;2023-12-20T02:09:14;7.80;99.90
16907;DHT22;8570;52.380;4.654;2023-12-20T02:14:18;7.80;99.90
16907;DHT22;8570;52.380;4.654;2023-12-20T02:19:20;7.80;99.90
16907;DHT22;8570;52.380;4.654;2023-12-20T02:24:26;7.80;99.90
16907;DHT22;8570;52.380;4.654;2023-12-20T02:29:27;7.80;99.90
16907;DHT22;8570;52.380;4.654;2023-12-20T02:34:29;7.80;99.90
16907;DHT22;8570;52.380;4.654;2023-12-20T02:39:33;7.80;99.90
16907;DHT22;8570;52.380;4.654;2023-12-20T02:44:35;7.80;99.90
16907;DHT22;8570;52.380;4.654;2023-12-20T02:49:37;7.80;99.90
16907;DHT22;8570;52.380;4.654;2023-12-20T02:54:40;7.80;99.90
16907;DHT22;8570;52.380;4.654;2023-12-20T02:59:48;7.90;99.90
16907;DHT22;8570;52.380;4.654;2023-12-20T03:04:50;7.90;99.90
16907;DHT22;8570;52.380;4.654;2023-12-20T03:09:53;7.80;99.90
16907;DHT22;8570;52.380;4.654;2023-12-20T03:14:55;7.80;99.90
16907;DHT22;8570;52.380;4.654;2023-12-20T03:19:59;7.80;99.90
16907;DHT22;8570;52.380;4.654;2023-12-20T03:25:07;7.80;99.90
16907;DHT22;8570;52.380;4.654;2023-12-20T03:30:09;7.80;99.90
16907;DHT22;8570;52.380;4.654;2023-12-20T03:35:11;7.70;99.90
16907;DHT22;8570;52.380;4.654;2023-12-20T03:40:16;7.70;99.90
16907;DHT22;8570;52.380;4.654;2023-12-20T03:45:18;7.70;99.90
16907;DHT22;8570;52.380;4.654;2023-12-20T03:50:20;7.70;99.90
16907;DHT22;8570;52.380;4.654;2023-12-20T03:55:23;7.80;99.90
16907;DHT22;8570;52.380;4.654;2023-12-20T04:00:27;7.80;99.90
16907;DHT22;8570;52.380;4.654;2023-12-20T04:05:30;7.80;99.90
16907;DHT22;8570;52.380;4.654;2023-12-20T04:10:34;7.80;99.90
16907;DHT22;8570;52.380;4.654;2023-12-20T04:15:35;7.80;99.90
16907;DHT22;8570;52.380;4.654;2023-12-20T04:20:37;7.80;99.90
16907;DHT22;8570;52.380;4.654;2023-12-20T04:25:41;7.80;99.90
16907;DHT22;8570;52.380;4.654;2023-12-20T04:30:42;7.90;99.90
16907;DHT22;8570;52.380;4.654;2023-12-20T04:35:44;7.90;99.90
16907;DHT22;8570;52.380;4.654;2023-12-20T04:40:48;7.80;99.90
16907;DHT22;8570;52.380;4.654;2023-12-20T04:45:49;7.90;99.90
16907;DHT22;8570;52.380;4.654;2023-12-20T04:50:51;7.80;99.90
16907;DHT22;8570;52.380;4.654;2023-12-20T04:55:55;7.90;99.90
16907;DHT22;8570;52.380;4.654;2023-12-20T05:00:57;7.90;99.90
16907;DHT22;8570;52.380;4.654;2023-12-20T05:05:59;7.90;99.90
16907;DHT22;8570;52.380;4.654;2023-12-20T05:11:02;7.90;99.90
16907;DHT22;8570;52.380;4.654;2023-12-20T05:16:05;7.90;99.90
16907;DHT22;8570;52.380;4.654;2023-12-20T05:21:30;7.90;99.90
16907;DHT22;8570;52.380;4.654;2023-12-20T05:26:41;8.00;99.90
16907;DHT22;8570;52.380;4.654;2023-12-20T05:31:43;8.00;99.90
16907;DHT22;8570;52.380;4.654;2023-12-20T05:36:46;8.00;99.90
16907;DHT22;8570;52.380;4.654;2023-12-20T05:41:48;8.00;99.90
16907;DHT22;8570;52.380;4.654;2023-12-20T05:46:50;8.10;99.90
16907;DHT22;8570;52.380;4.654;2023-12-20T05:51:53;8.10;99.90
16907;DHT22;8570;52.380;4.654;2023-12-20T05:56:55;8.10;99.90
16907;DHT22;8570;52.380;4.654;2023-12-20T06:01:57;8.10;99.90
16907;DHT22;8570;52.380;4.654;2023-12-20T06:07:00;8.20;99.90
16907;DHT22;8570;52.380;4.654;2023-12-20T06:12:02;8.20;99.90
16907;DHT22;8570;52.380;4.654;2023-12-20T06:17:04;8.10;99.90
16907;DHT22;8570;52.380;4.654;2023-12-20T06:22:08;8.20;99.90
16907;DHT22;8570;52.380;4.654;2023-12-20T06:27:09;8.20;99.90
16907;DHT22;8570;52.380;4.654;2023-12-20T06:32:11;8.10;99.90
16907;DHT22;8570;52.380;4.654;2023-12-20T06:37:15;8.10;99.90
16907;DHT22;8570;52.380;4.654;2023-12-20T06:42:17;8.10;99.90
16907;DHT22;8570;52.380;4.654;2023-12-20T06:47:19;8.20;99.90
16907;DHT22;8570;52.380;4.654;2023-12-20T06:52:22;8.20;99.90
16907;DHT22;8570;52.380;4.654;2023-12-20T06:57:24;8.20;99.90
16907;DHT22;8570;52.380;4.654;2023-12-20T07:02:28;8.20;99.90
16907;DHT22;8570;52.380;4.654;2023-12-20T07:07:33;8.20;99.90
16907;DHT22;8570;52.380;4.654;2023-12-20T07:12:35;8.20;99.90
16907;DHT22;8570;52.380;4.654;2023-12-20T07:17:37;8.20;99.90
16907;DHT22;8570;52.380;4.654;2023-12-20T07:22:41;8.30;99.90
16907;DHT22;8570;52.380;4.654;2023-12-20T07:27:42;8.50;99.90
16907;DHT22;8570;52.380;4.654;2023-12-20T07:32:44;8.40;99.90
16907;DHT22;8570;52.380;4.654;2023-12-20T07:37:49;8.30;99.90
16907;DHT22;8570;52.380;4.654;2023-12-20T07:42:51;8.30;99.90
16907;DHT22;8570;52.380;4.654;2023-12-20T07:47:52;8.20;99.90
16907;DHT22;8570;52.380;4.654;2023-12-20T07:52:56;8.20;99.90
16907;DHT22;8570;52.380;4.654;2023-12-20T07:58:00;8.30;99.90
16907;DHT22;8570;52.380;4.654;2023-12-20T08:03:02;8.30;99.90
16907;DHT22;8570;52.380;4.654;2023-12-20T08:08:06;8.30;99.90
16907;DHT22;8570;52.380;4.654;2023-12-20T08:13:08;8.30;99.90
16907;DHT22;8570;52.380;4.654;2023-12-20T08:18:13;8.40;99.90
16907;DHT22;8570;52.380;4.654;2023-12-20T08:23:16;8.50;99.90
16907;DHT22;8570;52.380;4.654;2023-12-20T08:28:18;8.50;99.90
16907;DHT22;8570;52.380;4.654;2023-12-20T08:33:20;8.50;99.90
16907;DHT22;8570;52.380;4.654;2023-12-20T08:38:23;8.60;99.90
16907;DHT22;8570;52.380;4.654;2023-12-20T08:43:25;8.60;99.90
16907;DHT22;8570;52.380;4.654;2023-12-20T08:48:27;8.60;99.90
16907;DHT22;8570;52.380;4.654;2023-12-20T08:53:30;8.60;99.90
16907;DHT22;8570;52.380;4.654;2023-12-20T08:58:32;8.60;99.90
16907;DHT22;8570;52.380;4.654;2023-12-20T09:03:36;8.60;99.90
16907;DHT22;8570;52.380;4.654;2023-12-20T09:08:39;8.70;99.90
16907;DHT22;8570;52.380;4.654;2023-12-20T09:13:41;8.70;99.90
16907;DHT22;8570;52.380;4.654;2023-12-20T09:18:43;8.70;99.90
16907;DHT22;8570;52.380;4.654;2023-12-20T09:23:46;8.80;99.90
16907;DHT22;8570;52.380;4.654;2023-12-20T09:28:48;8.80;99.90
16907;DHT22;8570;52.380;4.654;2023-12-20T09:33:50;8.80;99.90
16907;DHT22;8570;52.380;4.654;2023-12-20T09:38:53;8.80;99.90
16907;DHT22;8570;52.380;4.654;2023-12-20T09:43:56;8.80;99.90
16907;DHT22;8570;52.380;4.654;2023-12-20T09:49:00;8.90;99.90
16907;DHT22;8570;52.380;4.654;2023-12-20T09:54:04;8.90;99.90
16907;DHT22;8570;52.380;4.654;2023-12-20T09:59:06;8.90;99.90
16907;DHT22;8570;52.380;4.654;2023-12-20T10:04:09;9.00;99.90
16907;DHT22;8570;52.380;4.654;2023-12-20T10:09:14;8.90;99.90
16907;DHT22;8570;52.380;4.654;2023-12-20T10:14:16;9.00;99.90
16907;DHT22;8570;52.380;4.654;2023-12-20T10:19:19;9.00;99.90
16907;DHT22;8570;52.380;4.654;2023-12-20T10:24:22;9.10;99.90
16907;DHT22;8570;52.380;4.654;2023-12-20T10:29:24;9.20;99.90
16907;DHT22;8570;52.380;4.654;2023-12-20T10:34:26;9.20;99.90
16907;DHT22;8570;52.380;4.654;2023-12-20T10:39:30;9.20;99.90
16907;DHT22;8570;52.380;4.654;2023-12-20T10:44:32;9.30;99.90
16907;DHT22;8570;52.380;4.654;2023-12-20T10:49:36;9.30;99.90
16907;DHT22;8570;52.380;4.654;2023-12-20T10:54:40;9.30;99.90
16907;DHT22;8570;52.380;4.654;2023-12-20T10:59:43;9.30;99.90
16907;DHT22;8570;52.380;4.654;2023-12-20T11:04:50;9.40;99.90
16907;DHT22;8570;52.380;4.654;2023-12-20T11:10:00;9.40;99.90
16907;DHT22;8570;52.380;4.654;2023-12-20T11:15:06;9.40;99.90
16907;DHT22;8570;52.380;4.654;2023-12-20T11:20:10;9.40;99.90
16907;DHT22;8570;52.380;4.654;2023-12-20T11:25:14;9.40;99.90
16907;DHT22;8570;52.380;4.654;2023-12-20T11:30:15;9.40;99.90
16907;DHT22;8570;52.380;4.654;2023-12-20T11:35:18;9.40;99.90
16907;DHT22;8570;52.380;4.654;2023-12-20T11:40:24;9.40;99.90
16907;DHT22;8570;52.380;4.654;2023-12-20T11:45:27;9.40;99.90
16907;DHT22;8570;52.380;4.654;2023-12-20T11:50:29;9.40;99.90
16907;DHT22;8570;52.380;4.654;2023-12-20T11:55:33;9.40;99.90
16907;DHT22;8570;52.380;4.654;2023-12-20T12:00:37;9.40;99.90
16907;DHT22;8570;52.380;4.654;2023-12-20T12:05:38;9.50;99.90
16907;DHT22;8570;52.380;4.654;2023-12-20T12:10:42;9.40;99.90
16907;DHT22;8570;52.380;4.654;2023-12-20T12:15:44;9.40;99.90
16907;DHT22;8570;52.380;4.654;2023-12-20T12:20:46;9.50;99.90
16907;DHT22;8570;52.380;4.654;2023-12-20T12:25:49;9.50;99.90
16907;DHT22;8570;52.380;4.654;2023-12-20T12:30:56;9.40;99.90
16907;DHT22;8570;52.380;4.654;2023-12-20T12:35:59;9.50;99.90
16907;DHT22;8570;52.380;4.654;2023-12-20T12:41:04;9.50;99.90
16907;DHT22;8570;52.380;4.654;2023-12-20T12:46:06;9.40;99.90
16907;DHT22;8570;52.380;4.654;2023-12-20T12:51:08;9.40;99.90
16907;DHT22;8570;52.380;4.654;2023-12-20T12:56:15;9.40;99.90
16907;DHT22;8570;52.380;4.654;2023-12-20T13:01:17;9.40;99.90
16907;DHT22;8570;52.380;4.654;2023-12-20T13:06:19;9.40;99.90
16907;DHT22;8570;52.380;4.654;2023-12-20T13:11:22;9.40;99.90
16907;DHT22;8570;52.380;4.654;2023-12-20T13:16:24;9.40;99.90
16907;DHT22;8570;52.380;4.654;2023-12-20T13:21:26;9.40;99.90
16907;DHT22;8570;52.380;4.654;2023-12-20T13:26:29;9.40;99.90
16907;DHT22;8570;52.380;4.654;2023-12-20T13:31:31;9.40;99.90
16907;DHT22;8570;52.380;4.654;2023-12-20T13:36:33;9.40;99.90
16907;DHT22;8570;52.380;4.654;2023-12-20T13:41:38;9.40;99.90
16907;DHT22;8570;52.380;4.654;2023-12-20T13:46:40;9.40;99.90
16907;DHT22;8570;52.380;4.654;2023-12-20T13:51:42;9.40;99.90
16907;DHT22;8570;52.380;4.654;2023-12-20T13:56:45;9.40;99.90
16907;DHT22;8570;52.380;4.654;2023-12-20T14:01:47;9.40;99.90
16907;DHT22;8570;52.380;4.654;2023-12-20T14:06:50;9.40;99.90
16907;DHT22;8570;52.380;4.654;2023-12-20T14:11:53;9.40;99.90
16907;DHT22;8570;52.380;4.654;2023-12-20T14:16:55;9.40;99.90
16907;DHT22;8570;52.380;4.654;2023-12-20T14:21:57;9.40;99.90
16907;DHT22;8570;52.380;4.654;2023-12-20T14:27:03;9.40;99.90
16907;DHT22;8570;52.380;4.654;2023-12-20T14:32:05;9.40;99.90
16907;DHT22;8570;52.380;4.654;2023-12-20T14:37:07;9.30;99.90
16907;DHT22;8570;52.380;4.654;2023-12-20T14:42:11;9.40;99.90
16907;DHT22;8570;52.380;4.654;2023-12-20T14:47:14;9.30;99.90
16907;DHT22;8570;52.380;4.654;2023-12-20T14:52:17;9.30;99.90
16907;DHT22;8570;52.380;4.654;2023-12-20T14:57:21;9.30;99.90
16907;DHT22;8570;52.380;4.654;2023-12-20T15:02:22;9.30;99.90
16907;DHT22;8570;52.380;4.654;2023-12-20T15:07:24;9.30;99.90
16907;DHT22;8570;52.380;4.654;2023-12-20T15:12:27;9.30;99.90
16907;DHT22;8570;52.380;4.654;2023-12-20T15:17:29;9.30;99.90
16907;DHT22;8570;52.380;4.654;2023-12-20T15:22:31;9.30;99.90
16907;DHT22;8570;52.380;4.654;2023-12-20T15:27:35;9.20;99.90
16907;DHT22;8570;52.380;4.654;2023-12-20T15:32:38;9.20;99.90
16907;DHT22;8570;52.380;4.654;2023-12-20T15:37:41;9.20;99.90
16907;DHT22;8570;52.380;4.654;2023-12-20T15:42:44;9.10;99.90
16907;DHT22;8570;52.380;4.654;2023-12-20T15:47:46;9.10;99.90
16907;DHT22;8570;52.380;4.654;2023-12-20T15:52:47;9.10;99.90
16907;DHT22;8570;52.380;4.654;2023-12-20T15:57:54;9.10;99.90
16907;DHT22;8570;52.380;4.654;2023-12-20T16:02:58;9.10;99.90
16907;DHT22;8570;52.380;4.654;2023-12-20T16:08:00;9.00;99.90
16907;DHT22;8570;52.380;4.654;2023-12-20T16:13:11;8.90;99.90
16907;DHT22;8570;52.380;4.654;2023-12-20T16:18:13;8.80;99.90
16907;DHT22;8570;52.380;4.654;2023-12-20T16:23:15;8.80;99.90
16907;DHT22;8570;52.380;4.654;2023-12-20T16:28:32;8.70;99.90
16907;DHT22;8570;52.380;4.654;2023-12-20T16:33:51;8.70;99.90
16907;DHT22;8570;52.380;4.654;2023-12-20T16:38:55;8.70;99.90
16907;DHT22;8570;52.380;4.654;2023-12-20T16:44:02;8.70;99.90
16907;DHT22;8570;52.380;4.654;2023-12-20T16:49:04;8.70;99.90
16907;DHT22;8570;52.380;4.654;2023-12-20T16:54:11;8.70;99.90
16907;DHT22;8570;52.380;4.654;2023-12-20T16:59:40;8.70;99.90
16907;DHT22;8570;52.380;4.654;2023-12-20T17:04:43;8.70;99.90
16907;DHT22;8570;52.380;4.654;2023-12-20T17:09:45;8.80;99.90
16907;DHT22;8570;52.380;4.654;2023-12-20T17:14:50;8.80;99.90
16907;DHT22;8570;52.380;4.654;2023-12-20T17:19:54;8.80;99.90
16907;DHT22;8570;52.380;4.654;2023-12-20T17:24:57;8.80;99.90
16907;DHT22;8570;52.380;4.654;2023-12-20T17:30:06;8.90;99.90
16907;DHT22;8570;52.380;4.654;2023-12-20T17:35:10;8.90;99.90
16907;DHT22;8570;52.380;4.654;2023-12-20T17:40:12;8.90;99.90
16907;DHT22;8570;52.380;4.654;2023-12-20T17:45:19;8.90;99.90
16907;DHT22;8570;52.380;4.654;2023-12-20T17:50:21;9.00;99.90
16907;DHT22;8570;52.380;4.654;2023-12-20T17:55:26;9.00;99.90
16907;DHT22;8570;52.380;4.654;2023-12-20T18:00:36;9.00;99.90
16907;DHT22;8570;52.380;4.654;2023-12-20T18:05:40;9.00;99.90
16907;DHT22;8570;52.380;4.654;2023-12-20T18:10:42;9.00;99.90
16907;DHT22;8570;52.380;4.654;2023-12-20T18:15:49;9.00;99.90
16907;DHT22;8570;52.380;4.654;2023-12-20T18:20:57;9.00;99.90
16907;DHT22;8570;52.380;4.654;2023-12-20T18:25:59;9.00;99.90
16907;DHT22;8570;52.380;4.654;2023-12-20T18:31:03;9.10;99.90
16907;DHT22;8570;52.380;4.654;2023-12-20T18:36:07;9.10;99.90
16907;DHT22;8570;52.380;4.654;2023-12-20T18:41:10;9.10;99.90
16907;DHT22;8570;52.380;4.654;2023-12-20T18:46:16;9.10;99.90
16907;DHT22;8570;52.380;4.654;2023-12-20T18:51:18;9.10;99.90
16907;DHT22;8570;52.380;4.654;2023-12-20T18:56:21;9.20;99.90
16907;DHT22;8570;52.380;4.654;2023-12-20T19:01:24;9.20;99.90
16907;DHT22;8570;52.380;4.654;2023-12-20T19:06:26;9.20;99.90
16907;DHT22;8570;52.380;4.654;2023-12-20T19:11:28;9.30;99.90
16907;DHT22;8570;52.380;4.654;2023-12-20T19:16:31;9.30;99.90
16907;DHT22;8570;52.380;4.654;2023-12-20T19:21:52;9.30;99.90
16907;DHT22;8570;52.380;4.654;2023-12-20T19:26:57;9.30;99.90
16907;DHT22;8570;52.380;4.654;2023-12-20T19:32:00;9.20;99.90
16907;DHT22;8570;52.380;4.654;2023-12-20T19:37:02;9.20;99.90
16907;DHT22;8570;52.380;4.654;2023-12-20T19:42:06;9.20;99.90
16907;DHT22;8570;52.380;4.654;2023-12-20T19:47:09;9.20;99.90
16907;DHT22;8570;52.380;4.654;2023-12-20T19:52:13;9.20;99.90
16907;DHT22;8570;52.380;4.654;2023-12-20T19:57:16;9.20;99.90
16907;DHT22;8570;52.380;4.654;2023-12-20T20:02:19;9.20;99.90
16907;DHT22;8570;52.380;4.654;2023-12-20T20:07:24;9.20;99.90
16907;DHT22;8570;52.380;4.654;2023-12-20T20:12:32;9.30;99.90
16907;DHT22;8570;52.380;4.654;2023-12-20T20:17:47;9.30;99.90
16907;DHT22;8570;52.380;4.654;2023-12-20T20:22:54;9.40;99.90
16907;DHT22;8570;52.380;4.654;2023-12-20T20:28:03;9.40;99.90
16907;DHT22;8570;52.380;4.654;2023-12-20T20:33:32;9.50;99.90
16907;DHT22;8570;52.380;4.654;2023-12-20T20:38:34;9.50;99.90
16907;DHT22;8570;52.380;4.654;2023-12-20T20:43:36;9.50;99.90
16907;DHT22;8570;52.380;4.654;2023-12-20T20:48:39;9.60;99.90
16907;DHT22;8570;52.380;4.654;2023-12-20T20:53:41;9.70;99.90
16907;DHT22;8570;52.380;4.654;2023-12-20T20:58:48;9.70;99.90
16907;DHT22;8570;52.380;4.654;2023-12-20T21:03:54;9.70;99.90
16907;DHT22;8570;52.380;4.654;2023-12-20T21:08:56;9.70;99.90
16907;DHT22;8570;52.380;4.654;2023-12-20T21:13:58;9.70;99.90
16907;DHT22;8570;52.380;4.654;2023-12-20T21:19:01;9.70;99.90
16907;DHT22;8570;52.380;4.654;2023-12-20T21:24:10;9.80;99.90
16907;DHT22;8570;52.380;4.654;2023-12-20T21:29:16;9.80;99.90
16907;DHT22;8570;52.380;4.654;2023-12-20T21:34:20;9.80;99.90
16907;DHT22;8570;52.380;4.654;2023-12-20T21:39:22;9.80;99.90
16907;DHT22;8570;52.380;4.654;2023-12-20T21:44:29;9.80;99.90
16907;DHT22;8570;52.380;4.654;2023-12-20T21:49:33;9.90;99.90
16907;DHT22;8570;52.380;4.654;2023-12-20T21:54:45;9.90;99.90
16907;DHT22;8570;52.380;4.654;2023-12-20T22:05:59;9.90;99.90
16907;DHT22;8570;52.380;4.654;2023-12-20T22:11:07;9.90;99.90
16907;DHT22;8570;52.380;4.654;2023-12-20T22:16:24;10.00;99.90
16907;DHT22;8570;52.380;4.654;2023-12-20T22:21:33;10.00;99.90
16907;DHT22;8570;52.380;4.654;2023-12-20T22:26:45;10.00;99.90
16907;DHT22;8570;52.380;4.654;2023-12-20T22:31:48;10.00;99.90
16907;DHT22;8570;52.380;4.654;2023-12-20T22:36:52;10.10;99.90
16907;DHT22;8570;52.380;4.654;2023-12-20T22:41:54;10.10;99.90
16907;DHT22;8570;52.380;4.654;2023-12-20T22:46:56;10.10;99.90
16907;DHT22;8570;52.380;4.654;2023-12-20T22:52:03;10.10;99.90
16907;DHT22;8570;52.380;4.654;2023-12-20T22:57:05;10.10;99.90
16907;DHT22;8570;52.380;4.654;2023-12-20T23:02:09;10.10;99.90
16907;DHT22;8570;52.380;4.654;2023-12-20T23:07:15;10.10;99.90
16907;DHT22;8570;52.380;4.654;2023-12-20T23:12:20;10.10;99.90
16907;DHT22;8570;52.380;4.654;2023-12-20T23:17:22;10.10;99.90
16907;DHT22;8570;52.380;4.654;2023-12-20T23:22:25;10.10;99.90
16907;DHT22;8570;52.380;4.654;2023-12-20T23:27:27;10.10;99.90
16907;DHT22;8570;52.380;4.654;2023-12-20T23:32:30;10.10;99.90
16907;DHT22;8570;52.380;4.654;2023-12-20T23:37:36;10.10;99.90
16907;DHT22;8570;52.380;4.654;2023-12-20T23:42:41;10.10;99.90
16907;DHT22;8570;52.380;4.654;2023-12-20T23:47:43;10.10;99.90
16907;DHT22;8570;52.380;4.654;2023-12-20T23:52:46;10.10;99.90
16907;DHT22;8570;52.380;4.654;2023-12-20T23:57:52;10.10;99.90
